sensor_id;sensor_type;location;lat;lon;timestamp;P1;durP1;ratioP1;P2;durP2;ratioP2
25609;SDS011;13479;49.044;8.716;2022-10-16T00:00:35;2.53;;;0.93;;
25609;SDS011;13479;49.044;8.716;2022-10-16T00:03:02;2.45;;;0.80;;
25609;SDS011;13479;49.044;8.716;2022-10-16T00:05:29;1.42;;;0.60;;
25609;SDS011;13479;49.044;8.716;2022-10-16T00:07:54;1.65;;;0.75;;
25609;SDS011;13479;49.044;8.716;2022-10-16T00:10:19;2.05;;;0.90;;
25609;SDS011;13479;49.044;8.716;2022-10-16T00:12:45;3.47;;;0.80;;
25609;SDS011;13479;49.044;8.716;2022-10-16T00:15:10;2.53;;;0.80;;
25609;SDS011;13479;49.044;8.716;2022-10-16T00:17:36;2.15;;;0.90;;
25609;SDS011;13479;49.044;8.716;2022-10-16T00:20:01;2.42;;;0.60;;
25609;SDS011;13479;49.044;8.716;2022-10-16T00:22:27;2.13;;;0.50;;
25609;SDS011;13479;49.044;8.716;2022-10-16T00:24:52;1.17;;;0.55;;
25609;SDS011;13479;49.044;8.716;2022-10-16T00:27:18;2.85;;;0.50;;
25609;SDS011;13479;49.044;8.716;2022-10-16T00:29:43;1.25;;;0.50;;
25609;SDS011;13479;49.044;8.716;2022-10-16T00:32:08;2.22;;;0.70;;
25609;SDS011;13479;49.044;8.716;2022-10-16T00:34:34;2.65;;;0.60;;
25609;SDS011;13479;49.044;8.716;2022-10-16T00:36:59;2.50;;;0.60;;
25609;SDS011;13479;49.044;8.716;2022-10-16T00:39:24;1.48;;;0.70;;
25609;SDS011;13479;49.044;8.716;2022-10-16T00:41:50;1.90;;;0.70;;
25609;SDS011;13479;49.044;8.716;2022-10-16T00:47:13;2.30;;;0.70;;
25609;SDS011;13479;49.044;8.716;2022-10-16T00:49:43;2.38;;;0.90;;
25609;SDS011;13479;49.044;8.716;2022-10-16T00:52:09;1.13;;;0.50;;
25609;SDS011;13479;49.044;8.716;2022-10-16T00:54:35;1.30;;;0.70;;
25609;SDS011;13479;49.044;8.716;2022-10-16T00:57:01;2.15;;;0.60;;
25609;SDS011;13479;49.044;8.716;2022-10-16T00:59:33;1.20;;;0.88;;
25609;SDS011;13479;49.044;8.716;2022-10-16T01:02:00;3.83;;;0.90;;
25609;SDS011;13479;49.044;8.716;2022-10-16T01:04:26;2.90;;;0.68;;
25609;SDS011;13479;49.044;8.716;2022-10-16T01:07:11;1.00;;;0.60;;
25609;SDS011;13479;49.044;8.716;2022-10-16T01:09:59;4.13;;;0.75;;
25609;SDS011;13479;49.044;8.716;2022-10-16T01:13:04;2.90;;;0.75;;
25609;SDS011;13479;49.044;8.716;2022-10-16T01:15:37;6.93;;;0.70;;
25609;SDS011;13479;49.044;8.716;2022-10-16T01:18:19;0.70;;;0.50;;
25609;SDS011;13479;49.044;8.716;2022-10-16T01:21:10;5.70;;;0.80;;
25609;SDS011;13479;49.044;8.716;2022-10-16T01:24:02;3.28;;;0.80;;
25609;SDS011;13479;49.044;8.716;2022-10-16T01:29:32;1.70;;;0.50;;
25609;SDS011;13479;49.044;8.716;2022-10-16T01:35:04;3.75;;;0.90;;
25609;SDS011;13479;49.044;8.716;2022-10-16T01:37:36;3.13;;;0.70;;
25609;SDS011;13479;49.044;8.716;2022-10-16T01:40:03;1.38;;;0.70;;
25609;SDS011;13479;49.044;8.716;2022-10-16T01:42:35;1.55;;;0.57;;
25609;SDS011;13479;49.044;8.716;2022-10-16T01:45:04;1.35;;;0.60;;
25609;SDS011;13479;49.044;8.716;2022-10-16T01:47:32;2.10;;;0.70;;
25609;SDS011;13479;49.044;8.716;2022-10-16T01:50:00;4.72;;;0.80;;
25609;SDS011;13479;49.044;8.716;2022-10-16T01:52:30;4.43;;;0.77;;
25609;SDS011;13479;49.044;8.716;2022-10-16T01:54:59;1.65;;;0.60;;
25609;SDS011;13479;49.044;8.716;2022-10-16T01:57:27;1.58;;;0.60;;
25609;SDS011;13479;49.044;8.716;2022-10-16T01:59:56;1.55;;;0.63;;
25609;SDS011;13479;49.044;8.716;2022-10-16T02:02:26;1.58;;;0.60;;
25609;SDS011;13479;49.044;8.716;2022-10-16T02:04:55;1.73;;;0.60;;
25609;SDS011;13479;49.044;8.716;2022-10-16T02:07:24;2.10;;;0.60;;
25609;SDS011;13479;49.044;8.716;2022-10-16T02:09:50;2.53;;;0.85;;
25609;SDS011;13479;49.044;8.716;2022-10-16T02:12:25;3.33;;;0.77;;
25609;SDS011;13479;49.044;8.716;2022-10-16T02:14:53;2.30;;;0.70;;
25609;SDS011;13479;49.044;8.716;2022-10-16T02:17:19;2.78;;;0.80;;
25609;SDS011;13479;49.044;8.716;2022-10-16T02:19:45;2.65;;;0.70;;
25609;SDS011;13479;49.044;8.716;2022-10-16T02:22:15;2.45;;;0.60;;
25609;SDS011;13479;49.044;8.716;2022-10-16T02:24:51;1.02;;;0.50;;
25609;SDS011;13479;49.044;8.716;2022-10-16T02:27:28;1.85;;;0.60;;
25609;SDS011;13479;49.044;8.716;2022-10-16T02:30:14;1.02;;;0.60;;
25609;SDS011;13479;49.044;8.716;2022-10-16T02:32:46;0.93;;;0.50;;
25609;SDS011;13479;49.044;8.716;2022-10-16T02:35:14;1.50;;;0.65;;
25609;SDS011;13479;49.044;8.716;2022-10-16T02:37:43;8.30;;;0.80;;
25609;SDS011;13479;49.044;8.716;2022-10-16T02:40:10;4.40;;;0.63;;
25609;SDS011;13479;49.044;8.716;2022-10-16T02:42:37;2.83;;;0.70;;
25609;SDS011;13479;49.044;8.716;2022-10-16T02:45:04;2.15;;;0.60;;
25609;SDS011;13479;49.044;8.716;2022-10-16T02:47:31;1.38;;;0.60;;
25609;SDS011;13479;49.044;8.716;2022-10-16T02:49:56;1.33;;;0.73;;
25609;SDS011;13479;49.044;8.716;2022-10-16T02:52:21;2.85;;;0.70;;
25609;SDS011;13479;49.044;8.716;2022-10-16T02:54:47;2.40;;;0.60;;
25609;SDS011;13479;49.044;8.716;2022-10-16T02:57:12;3.33;;;0.70;;
25609;SDS011;13479;49.044;8.716;2022-10-16T02:59:37;0.70;;;0.55;;
25609;SDS011;13479;49.044;8.716;2022-10-16T03:02:02;3.08;;;0.80;;
25609;SDS011;13479;49.044;8.716;2022-10-16T03:04:28;2.55;;;0.80;;
25609;SDS011;13479;49.044;8.716;2022-10-16T03:06:53;2.72;;;0.80;;
25609;SDS011;13479;49.044;8.716;2022-10-16T03:09:18;1.48;;;0.60;;
25609;SDS011;13479;49.044;8.716;2022-10-16T03:11:44;1.63;;;0.60;;
25609;SDS011;13479;49.044;8.716;2022-10-16T03:14:09;1.42;;;0.60;;
25609;SDS011;13479;49.044;8.716;2022-10-16T03:16:34;4.72;;;0.80;;
25609;SDS011;13479;49.044;8.716;2022-10-16T03:18:59;2.55;;;0.60;;
25609;SDS011;13479;49.044;8.716;2022-10-16T03:21:25;2.17;;;0.70;;
25609;SDS011;13479;49.044;8.716;2022-10-16T03:23:51;3.58;;;0.70;;
25609;SDS011;13479;49.044;8.716;2022-10-16T03:26:16;2.83;;;0.63;;
25609;SDS011;13479;49.044;8.716;2022-10-16T03:28:41;5.72;;;0.70;;
25609;SDS011;13479;49.044;8.716;2022-10-16T03:31:06;1.50;;;0.70;;
25609;SDS011;13479;49.044;8.716;2022-10-16T03:33:33;7.10;;;0.70;;
25609;SDS011;13479;49.044;8.716;2022-10-16T03:35:58;1.10;;;0.70;;
25609;SDS011;13479;49.044;8.716;2022-10-16T03:38:23;1.35;;;0.70;;
25609;SDS011;13479;49.044;8.716;2022-10-16T03:40:49;1.10;;;0.63;;
25609;SDS011;13479;49.044;8.716;2022-10-16T03:43:14;2.20;;;0.60;;
25609;SDS011;13479;49.044;8.716;2022-10-16T03:45:39;1.08;;;0.60;;
25609;SDS011;13479;49.044;8.716;2022-10-16T03:48:05;2.60;;;1.10;;
25609;SDS011;13479;49.044;8.716;2022-10-16T03:50:30;4.25;;;0.77;;
25609;SDS011;13479;49.044;8.716;2022-10-16T03:52:55;3.25;;;0.60;;
25609;SDS011;13479;49.044;8.716;2022-10-16T03:55:21;2.92;;;0.80;;
25609;SDS011;13479;49.044;8.716;2022-10-16T03:57:46;3.22;;;0.68;;
25609;SDS011;13479;49.044;8.716;2022-10-16T04:00:11;5.55;;;0.88;;
25609;SDS011;13479;49.044;8.716;2022-10-16T04:02:37;1.77;;;0.80;;
25609;SDS011;13479;49.044;8.716;2022-10-16T04:05:02;1.08;;;0.60;;
25609;SDS011;13479;49.044;8.716;2022-10-16T04:07:28;2.45;;;0.77;;
25609;SDS011;13479;49.044;8.716;2022-10-16T04:09:53;2.70;;;0.88;;
25609;SDS011;13479;49.044;8.716;2022-10-16T04:12:19;1.75;;;0.70;;
25609;SDS011;13479;49.044;8.716;2022-10-16T04:14:44;3.70;;;0.80;;
25609;SDS011;13479;49.044;8.716;2022-10-16T04:17:09;5.50;;;0.70;;
25609;SDS011;13479;49.044;8.716;2022-10-16T04:19:41;4.22;;;0.70;;
25609;SDS011;13479;49.044;8.716;2022-10-16T04:22:06;2.25;;;0.60;;
25609;SDS011;13479;49.044;8.716;2022-10-16T04:24:32;7.22;;;0.77;;
25609;SDS011;13479;49.044;8.716;2022-10-16T04:26:57;3.42;;;0.60;;
25609;SDS011;13479;49.044;8.716;2022-10-16T04:29:23;2.70;;;0.80;;
25609;SDS011;13479;49.044;8.716;2022-10-16T04:31:48;4.53;;;0.70;;
25609;SDS011;13479;49.044;8.716;2022-10-16T04:34:13;3.65;;;0.90;;
25609;SDS011;13479;49.044;8.716;2022-10-16T04:36:38;1.38;;;0.60;;
25609;SDS011;13479;49.044;8.716;2022-10-16T04:39:04;1.80;;;0.60;;
25609;SDS011;13479;49.044;8.716;2022-10-16T04:41:29;4.43;;;0.70;;
25609;SDS011;13479;49.044;8.716;2022-10-16T04:43:54;1.88;;;0.60;;
25609;SDS011;13479;49.044;8.716;2022-10-16T04:46:19;3.78;;;0.80;;
25609;SDS011;13479;49.044;8.716;2022-10-16T04:48:45;2.13;;;0.60;;
25609;SDS011;13479;49.044;8.716;2022-10-16T04:51:11;4.07;;;0.60;;
25609;SDS011;13479;49.044;8.716;2022-10-16T04:53:36;4.18;;;0.60;;
25609;SDS011;13479;49.044;8.716;2022-10-16T04:56:02;4.93;;;0.73;;
25609;SDS011;13479;49.044;8.716;2022-10-16T04:58:27;4.05;;;0.68;;
25609;SDS011;13479;49.044;8.716;2022-10-16T05:00:52;4.60;;;0.70;;
25609;SDS011;13479;49.044;8.716;2022-10-16T05:03:18;6.35;;;0.70;;
25609;SDS011;13479;49.044;8.716;2022-10-16T05:05:43;3.20;;;0.73;;
25609;SDS011;13479;49.044;8.716;2022-10-16T05:08:12;3.90;;;0.70;;
25609;SDS011;13479;49.044;8.716;2022-10-16T05:10:38;5.53;;;1.00;;
25609;SDS011;13479;49.044;8.716;2022-10-16T05:13:04;5.60;;;0.90;;
25609;SDS011;13479;49.044;8.716;2022-10-16T05:15:29;6.45;;;0.95;;
25609;SDS011;13479;49.044;8.716;2022-10-16T05:17:54;3.53;;;0.90;;
25609;SDS011;13479;49.044;8.716;2022-10-16T05:20:21;3.30;;;0.70;;
25609;SDS011;13479;49.044;8.716;2022-10-16T05:22:48;4.53;;;1.00;;
25609;SDS011;13479;49.044;8.716;2022-10-16T05:25:14;1.52;;;0.80;;
25609;SDS011;13479;49.044;8.716;2022-10-16T05:27:39;4.40;;;0.68;;
25609;SDS011;13479;49.044;8.716;2022-10-16T05:30:04;1.52;;;0.68;;
25609;SDS011;13479;49.044;8.716;2022-10-16T05:32:30;3.60;;;0.90;;
25609;SDS011;13479;49.044;8.716;2022-10-16T05:34:55;5.05;;;0.60;;
25609;SDS011;13479;49.044;8.716;2022-10-16T05:37:21;2.75;;;0.73;;
25609;SDS011;13479;49.044;8.716;2022-10-16T05:39:46;3.15;;;0.80;;
25609;SDS011;13479;49.044;8.716;2022-10-16T05:42:11;2.72;;;0.55;;
25609;SDS011;13479;49.044;8.716;2022-10-16T05:44:36;3.97;;;0.80;;
25609;SDS011;13479;49.044;8.716;2022-10-16T05:47:01;2.50;;;0.70;;
25609;SDS011;13479;49.044;8.716;2022-10-16T05:49:27;4.70;;;1.00;;
25609;SDS011;13479;49.044;8.716;2022-10-16T05:51:52;1.88;;;0.73;;
25609;SDS011;13479;49.044;8.716;2022-10-16T05:54:18;4.93;;;0.80;;
25609;SDS011;13479;49.044;8.716;2022-10-16T05:56:43;4.45;;;0.80;;
25609;SDS011;13479;49.044;8.716;2022-10-16T05:59:09;1.55;;;0.73;;
25609;SDS011;13479;49.044;8.716;2022-10-16T06:01:34;1.67;;;0.80;;
25609;SDS011;13479;49.044;8.716;2022-10-16T06:04:00;4.93;;;0.95;;
25609;SDS011;13479;49.044;8.716;2022-10-16T06:06:26;2.20;;;0.82;;
25609;SDS011;13479;49.044;8.716;2022-10-16T06:08:53;6.18;;;1.00;;
25609;SDS011;13479;49.044;8.716;2022-10-16T06:11:21;4.60;;;0.80;;
25609;SDS011;13479;49.044;8.716;2022-10-16T06:13:55;3.17;;;0.90;;
25609;SDS011;13479;49.044;8.716;2022-10-16T06:16:22;4.93;;;1.10;;
25609;SDS011;13479;49.044;8.716;2022-10-16T06:18:50;8.40;;;0.85;;
25609;SDS011;13479;49.044;8.716;2022-10-16T06:21:17;3.83;;;0.90;;
25609;SDS011;13479;49.044;8.716;2022-10-16T06:23:44;2.05;;;0.85;;
25609;SDS011;13479;49.044;8.716;2022-10-16T06:26:12;4.88;;;0.80;;
25609;SDS011;13479;49.044;8.716;2022-10-16T06:28:39;1.92;;;0.90;;
25609;SDS011;13479;49.044;8.716;2022-10-16T06:31:05;4.43;;;0.93;;
25609;SDS011;13479;49.044;8.716;2022-10-16T06:33:33;2.58;;;0.88;;
25609;SDS011;13479;49.044;8.716;2022-10-16T06:36:00;3.67;;;1.10;;
25609;SDS011;13479;49.044;8.716;2022-10-16T06:38:29;4.15;;;1.02;;
25609;SDS011;13479;49.044;8.716;2022-10-16T06:40:55;1.83;;;0.85;;
25609;SDS011;13479;49.044;8.716;2022-10-16T06:43:20;2.10;;;1.35;;
25609;SDS011;13479;49.044;8.716;2022-10-16T06:45:52;4.38;;;1.70;;
25609;SDS011;13479;49.044;8.716;2022-10-16T06:48:21;2.40;;;1.33;;
25609;SDS011;13479;49.044;8.716;2022-10-16T06:51:01;8.45;;;1.30;;
25609;SDS011;13479;49.044;8.716;2022-10-16T06:53:31;3.38;;;1.00;;
25609;SDS011;13479;49.044;8.716;2022-10-16T06:55:57;3.30;;;1.10;;
25609;SDS011;13479;49.044;8.716;2022-10-16T06:58:23;7.85;;;0.90;;
25609;SDS011;13479;49.044;8.716;2022-10-16T07:00:48;6.40;;;1.00;;
25609;SDS011;13479;49.044;8.716;2022-10-16T07:03:19;7.85;;;1.13;;
25609;SDS011;13479;49.044;8.716;2022-10-16T07:05:44;2.60;;;1.00;;
25609;SDS011;13479;49.044;8.716;2022-10-16T07:08:10;3.58;;;0.98;;
25609;SDS011;13479;49.044;8.716;2022-10-16T07:10:35;2.35;;;0.95;;
25609;SDS011;13479;49.044;8.716;2022-10-16T07:13:00;3.53;;;1.27;;
25609;SDS011;13479;49.044;8.716;2022-10-16T07:15:26;3.17;;;1.20;;
25609;SDS011;13479;49.044;8.716;2022-10-16T07:17:52;2.17;;;0.90;;
25609;SDS011;13479;49.044;8.716;2022-10-16T07:20:17;2.92;;;1.10;;
25609;SDS011;13479;49.044;8.716;2022-10-16T07:22:42;5.88;;;0.90;;
25609;SDS011;13479;49.044;8.716;2022-10-16T07:25:08;13.93;;;1.05;;
25609;SDS011;13479;49.044;8.716;2022-10-16T07:27:33;2.70;;;1.02;;
25609;SDS011;13479;49.044;8.716;2022-10-16T07:29:59;4.43;;;0.80;;
25609;SDS011;13479;49.044;8.716;2022-10-16T07:32:24;1.30;;;0.70;;
25609;SDS011;13479;49.044;8.716;2022-10-16T07:34:50;3.60;;;0.93;;
25609;SDS011;13479;49.044;8.716;2022-10-16T07:37:16;1.95;;;0.80;;
25609;SDS011;13479;49.044;8.716;2022-10-16T07:39:41;6.50;;;1.10;;
25609;SDS011;13479;49.044;8.716;2022-10-16T07:42:06;7.03;;;1.20;;
25609;SDS011;13479;49.044;8.716;2022-10-16T07:44:32;1.85;;;0.98;;
25609;SDS011;13479;49.044;8.716;2022-10-16T07:46:57;5.57;;;1.10;;
25609;SDS011;13479;49.044;8.716;2022-10-16T07:49:23;4.40;;;1.10;;
25609;SDS011;13479;49.044;8.716;2022-10-16T07:51:48;1.90;;;0.90;;
25609;SDS011;13479;49.044;8.716;2022-10-16T07:54:13;5.28;;;1.10;;
25609;SDS011;13479;49.044;8.716;2022-10-16T07:56:38;2.45;;;0.90;;
25609;SDS011;13479;49.044;8.716;2022-10-16T07:59:04;4.80;;;1.30;;
25609;SDS011;13479;49.044;8.716;2022-10-16T08:01:29;2.88;;;0.85;;
25609;SDS011;13479;49.044;8.716;2022-10-16T08:03:54;2.63;;;0.90;;
25609;SDS011;13479;49.044;8.716;2022-10-16T08:06:20;4.18;;;1.00;;
25609;SDS011;13479;49.044;8.716;2022-10-16T08:08:47;3.38;;;0.90;;
25609;SDS011;13479;49.044;8.716;2022-10-16T08:11:12;2.88;;;0.93;;
25609;SDS011;13479;49.044;8.716;2022-10-16T08:13:39;1.95;;;0.80;;
25609;SDS011;13479;49.044;8.716;2022-10-16T08:16:04;1.40;;;0.80;;
25609;SDS011;13479;49.044;8.716;2022-10-16T08:18:36;1.85;;;0.88;;
25609;SDS011;13479;49.044;8.716;2022-10-16T08:21:04;2.80;;;0.70;;
25609;SDS011;13479;49.044;8.716;2022-10-16T08:23:30;3.40;;;1.20;;
25609;SDS011;13479;49.044;8.716;2022-10-16T08:25:56;2.10;;;0.80;;
25609;SDS011;13479;49.044;8.716;2022-10-16T08:28:26;2.70;;;0.85;;
25609;SDS011;13479;49.044;8.716;2022-10-16T08:30:51;3.65;;;1.30;;
25609;SDS011;13479;49.044;8.716;2022-10-16T08:33:16;12.55;;;4.93;;
25609;SDS011;13479;49.044;8.716;2022-10-16T08:35:42;10.35;;;1.00;;
25609;SDS011;13479;49.044;8.716;2022-10-16T08:38:07;4.60;;;1.00;;
25609;SDS011;13479;49.044;8.716;2022-10-16T08:40:33;4.93;;;1.13;;
25609;SDS011;13479;49.044;8.716;2022-10-16T08:48:46;6.90;;;0.70;;
25609;SDS011;13479;49.044;8.716;2022-10-16T08:51:27;7.82;;;0.90;;
25609;SDS011;13479;49.044;8.716;2022-10-16T08:53:59;3.03;;;0.85;;
25609;SDS011;13479;49.044;8.716;2022-10-16T08:56:28;1.33;;;0.90;;
25609;SDS011;13479;49.044;8.716;2022-10-16T08:58:54;2.22;;;0.90;;
25609;SDS011;13479;49.044;8.716;2022-10-16T09:01:21;2.13;;;0.90;;
25609;SDS011;13479;49.044;8.716;2022-10-16T09:07:13;2.33;;;0.80;;
25609;SDS011;13479;49.044;8.716;2022-10-16T09:18:28;3.65;;;1.65;;
25609;SDS011;13479;49.044;8.716;2022-10-16T09:21:15;1.35;;;0.80;;
25609;SDS011;13479;49.044;8.716;2022-10-16T09:23:46;4.10;;;0.90;;
25609;SDS011;13479;49.044;8.716;2022-10-16T09:26:13;2.53;;;0.80;;
25609;SDS011;13479;49.044;8.716;2022-10-16T09:28:40;3.47;;;1.00;;
25609;SDS011;13479;49.044;8.716;2022-10-16T09:31:07;1.80;;;1.08;;
25609;SDS011;13479;49.044;8.716;2022-10-16T09:33:40;5.65;;;1.00;;
25609;SDS011;13479;49.044;8.716;2022-10-16T09:36:06;4.85;;;0.90;;
25609;SDS011;13479;49.044;8.716;2022-10-16T09:38:34;2.42;;;0.93;;
25609;SDS011;13479;49.044;8.716;2022-10-16T09:41:14;2.67;;;1.00;;
25609;SDS011;13479;49.044;8.716;2022-10-16T09:46:24;2.42;;;1.00;;
25609;SDS011;13479;49.044;8.716;2022-10-16T09:49:35;5.15;;;1.00;;
25609;SDS011;13479;49.044;8.716;2022-10-16T09:51:49;7.65;;;0.98;;
25609;SDS011;13479;49.044;8.716;2022-10-16T09:54:19;2.95;;;0.90;;
25609;SDS011;13479;49.044;8.716;2022-10-16T09:56:46;3.00;;;0.80;;
25609;SDS011;13479;49.044;8.716;2022-10-16T09:59:17;1.60;;;0.80;;
25609;SDS011;13479;49.044;8.716;2022-10-16T10:04:11;1.70;;;0.90;;
25609;SDS011;13479;49.044;8.716;2022-10-16T10:06:58;3.05;;;0.82;;
25609;SDS011;13479;49.044;8.716;2022-10-16T10:09:23;4.00;;;0.75;;
25609;SDS011;13479;49.044;8.716;2022-10-16T10:16:46;3.75;;;0.73;;
25609;SDS011;13479;49.044;8.716;2022-10-16T10:19:14;3.00;;;0.80;;
25609;SDS011;13479;49.044;8.716;2022-10-16T10:21:40;2.08;;;0.73;;
25609;SDS011;13479;49.044;8.716;2022-10-16T10:24:09;3.05;;;0.65;;
25609;SDS011;13479;49.044;8.716;2022-10-16T10:26:38;3.85;;;0.60;;
25609;SDS011;13479;49.044;8.716;2022-10-16T10:29:28;3.83;;;0.55;;
25609;SDS011;13479;49.044;8.716;2022-10-16T10:32:18;3.03;;;0.70;;
25609;SDS011;13479;49.044;8.716;2022-10-16T10:35:16;4.20;;;0.68;;
25609;SDS011;13479;49.044;8.716;2022-10-16T10:37:51;2.20;;;1.00;;
25609;SDS011;13479;49.044;8.716;2022-10-16T10:46:15;3.28;;;0.68;;
25609;SDS011;13479;49.044;8.716;2022-10-16T10:51:43;4.85;;;0.85;;
25609;SDS011;13479;49.044;8.716;2022-10-16T10:54:38;1.35;;;0.73;;
25609;SDS011;13479;49.044;8.716;2022-10-16T10:57:21;3.47;;;0.80;;
25609;SDS011;13479;49.044;8.716;2022-10-16T10:59:57;1.52;;;0.70;;
25609;SDS011;13479;49.044;8.716;2022-10-16T11:02:37;2.47;;;0.70;;
25609;SDS011;13479;49.044;8.716;2022-10-16T11:07:42;4.10;;;0.70;;
25609;SDS011;13479;49.044;8.716;2022-10-16T11:10:16;2.58;;;0.75;;
25609;SDS011;13479;49.044;8.716;2022-10-16T11:12:46;7.05;;;0.82;;
25609;SDS011;13479;49.044;8.716;2022-10-16T11:15:19;4.40;;;0.90;;
25609;SDS011;13479;49.044;8.716;2022-10-16T11:17:58;3.45;;;0.90;;
25609;SDS011;13479;49.044;8.716;2022-10-16T11:20:42;2.63;;;0.60;;
25609;SDS011;13479;49.044;8.716;2022-10-16T11:23:29;5.40;;;1.13;;
25609;SDS011;13479;49.044;8.716;2022-10-16T11:26:04;5.95;;;1.10;;
25609;SDS011;13479;49.044;8.716;2022-10-16T11:28:41;6.80;;;1.13;;
25609;SDS011;13479;49.044;8.716;2022-10-16T11:31:13;6.65;;;1.08;;
25609;SDS011;13479;49.044;8.716;2022-10-16T11:33:46;6.45;;;1.10;;
25609;SDS011;13479;49.044;8.716;2022-10-16T11:36:21;3.63;;;0.77;;
25609;SDS011;13479;49.044;8.716;2022-10-16T11:39:16;8.75;;;1.08;;
25609;SDS011;13479;49.044;8.716;2022-10-16T11:41:49;6.28;;;1.00;;
25609;SDS011;13479;49.044;8.716;2022-10-16T11:49:52;4.97;;;1.02;;
25609;SDS011;13479;49.044;8.716;2022-10-16T11:52:25;6.85;;;1.50;;
25609;SDS011;13479;49.044;8.716;2022-10-16T11:57:42;4.75;;;1.10;;
25609;SDS011;13479;49.044;8.716;2022-10-16T12:02:46;2.33;;;1.10;;
25609;SDS011;13479;49.044;8.716;2022-10-16T12:05:32;2.05;;;0.80;;
25609;SDS011;13479;49.044;8.716;2022-10-16T12:08:11;2.80;;;0.70;;
25609;SDS011;13479;49.044;8.716;2022-10-16T12:10:38;1.98;;;0.90;;
25609;SDS011;13479;49.044;8.716;2022-10-16T12:19:12;2.80;;;0.80;;
25609;SDS011;13479;49.044;8.716;2022-10-16T12:21:39;3.55;;;1.02;;
25609;SDS011;13479;49.044;8.716;2022-10-16T12:24:05;1.85;;;0.80;;
25609;SDS011;13479;49.044;8.716;2022-10-16T12:26:32;4.70;;;0.98;;
25609;SDS011;13479;49.044;8.716;2022-10-16T12:31:58;4.93;;;1.08;;
25609;SDS011;13479;49.044;8.716;2022-10-16T12:37:07;4.93;;;0.90;;
25609;SDS011;13479;49.044;8.716;2022-10-16T12:39:36;2.03;;;0.75;;
25609;SDS011;13479;49.044;8.716;2022-10-16T12:42:04;2.30;;;1.00;;
25609;SDS011;13479;49.044;8.716;2022-10-16T12:44:34;6.50;;;0.90;;
25609;SDS011;13479;49.044;8.716;2022-10-16T12:47:01;6.15;;;0.95;;
25609;SDS011;13479;49.044;8.716;2022-10-16T12:49:29;1.55;;;0.80;;
25609;SDS011;13479;49.044;8.716;2022-10-16T12:51:56;3.80;;;1.05;;
25609;SDS011;13479;49.044;8.716;2022-10-16T12:54:25;2.22;;;1.10;;
25609;SDS011;13479;49.044;8.716;2022-10-16T13:05:25;2.55;;;1.00;;
25609;SDS011;13479;49.044;8.716;2022-10-16T13:11:20;4.18;;;0.90;;
25609;SDS011;13479;49.044;8.716;2022-10-16T13:19:43;4.28;;;1.02;;
25609;SDS011;13479;49.044;8.716;2022-10-16T13:22:25;2.08;;;1.02;;
25609;SDS011;13479;49.044;8.716;2022-10-16T13:25:02;1.02;;;0.80;;
25609;SDS011;13479;49.044;8.716;2022-10-16T13:27:35;3.40;;;0.90;;
25609;SDS011;13479;49.044;8.716;2022-10-16T13:30:15;1.15;;;0.77;;
25609;SDS011;13479;49.044;8.716;2022-10-16T13:32:50;4.10;;;0.82;;
25609;SDS011;13479;49.044;8.716;2022-10-16T13:35:26;5.10;;;0.90;;
25609;SDS011;13479;49.044;8.716;2022-10-16T13:46:07;3.78;;;1.20;;
25609;SDS011;13479;49.044;8.716;2022-10-16T13:49:04;7.82;;;1.25;;
25609;SDS011;13479;49.044;8.716;2022-10-16T13:51:36;3.65;;;1.30;;
25609;SDS011;13479;49.044;8.716;2022-10-16T13:54:01;3.05;;;1.02;;
25609;SDS011;13479;49.044;8.716;2022-10-16T13:56:28;6.85;;;1.00;;
25609;SDS011;13479;49.044;8.716;2022-10-16T13:59:37;5.90;;;1.25;;
25609;SDS011;13479;49.044;8.716;2022-10-16T14:01:51;2.15;;;1.08;;
25609;SDS011;13479;49.044;8.716;2022-10-16T14:04:20;4.75;;;1.02;;
25609;SDS011;13479;49.044;8.716;2022-10-16T14:06:48;4.10;;;1.45;;
25609;SDS011;13479;49.044;8.716;2022-10-16T14:09:28;2.47;;;1.17;;
25609;SDS011;13479;49.044;8.716;2022-10-16T14:12:00;5.93;;;1.30;;
25609;SDS011;13479;49.044;8.716;2022-10-16T14:14:31;3.63;;;1.10;;
25609;SDS011;13479;49.044;8.716;2022-10-16T14:17:00;9.68;;;1.13;;
25609;SDS011;13479;49.044;8.716;2022-10-16T14:19:28;2.75;;;1.15;;
25609;SDS011;13479;49.044;8.716;2022-10-16T14:21:54;4.60;;;1.30;;
25609;SDS011;13479;49.044;8.716;2022-10-16T14:24:24;2.47;;;1.20;;
25609;SDS011;13479;49.044;8.716;2022-10-16T14:26:51;2.92;;;1.20;;
25609;SDS011;13479;49.044;8.716;2022-10-16T14:29:19;3.70;;;1.40;;
25609;SDS011;13479;49.044;8.716;2022-10-16T14:32:05;6.00;;;1.40;;
25609;SDS011;13479;49.044;8.716;2022-10-16T14:34:32;5.15;;;1.42;;
25609;SDS011;13479;49.044;8.716;2022-10-16T14:37:23;3.80;;;1.40;;
25609;SDS011;13479;49.044;8.716;2022-10-16T14:39:51;2.55;;;1.10;;
25609;SDS011;13479;49.044;8.716;2022-10-16T14:42:18;7.10;;;1.33;;
25609;SDS011;13479;49.044;8.716;2022-10-16T14:44:45;8.20;;;1.13;;
25609;SDS011;13479;49.044;8.716;2022-10-16T14:47:16;4.20;;;1.10;;
25609;SDS011;13479;49.044;8.716;2022-10-16T14:49:47;6.03;;;1.20;;
25609;SDS011;13479;49.044;8.716;2022-10-16T14:52:12;1.90;;;1.23;;
25609;SDS011;13479;49.044;8.716;2022-10-16T14:54:39;2.38;;;0.95;;
25609;SDS011;13479;49.044;8.716;2022-10-16T14:57:05;5.00;;;1.27;;
25609;SDS011;13479;49.044;8.716;2022-10-16T14:59:35;12.50;;;2.33;;
25609;SDS011;13479;49.044;8.716;2022-10-16T15:02:46;4.47;;;2.03;;
25609;SDS011;13479;49.044;8.716;2022-10-16T15:04:56;7.30;;;2.30;;
25609;SDS011;13479;49.044;8.716;2022-10-16T15:07:22;8.00;;;1.70;;
25609;SDS011;13479;49.044;8.716;2022-10-16T15:09:48;5.13;;;1.70;;
25609;SDS011;13479;49.044;8.716;2022-10-16T15:12:13;4.35;;;2.03;;
25609;SDS011;13479;49.044;8.716;2022-10-16T15:14:38;2.78;;;1.65;;
25609;SDS011;13479;49.044;8.716;2022-10-16T15:17:03;3.92;;;1.38;;
25609;SDS011;13479;49.044;8.716;2022-10-16T15:19:29;7.30;;;1.70;;
25609;SDS011;13479;49.044;8.716;2022-10-16T15:21:55;2.20;;;1.30;;
25609;SDS011;13479;49.044;8.716;2022-10-16T15:24:20;4.90;;;1.50;;
25609;SDS011;13479;49.044;8.716;2022-10-16T15:26:45;4.72;;;1.50;;
25609;SDS011;13479;49.044;8.716;2022-10-16T15:29:14;3.28;;;1.17;;
25609;SDS011;13479;49.044;8.716;2022-10-16T15:31:40;5.97;;;1.20;;
25609;SDS011;13479;49.044;8.716;2022-10-16T15:34:08;3.42;;;1.27;;
25609;SDS011;13479;49.044;8.716;2022-10-16T15:36:35;3.22;;;1.48;;
25609;SDS011;13479;49.044;8.716;2022-10-16T15:39:05;2.92;;;1.17;;
25609;SDS011;13479;49.044;8.716;2022-10-16T15:41:37;4.30;;;1.60;;
25609;SDS011;13479;49.044;8.716;2022-10-16T15:44:02;7.03;;;2.40;;
25609;SDS011;13479;49.044;8.716;2022-10-16T15:46:27;3.75;;;1.90;;
25609;SDS011;13479;49.044;8.716;2022-10-16T15:48:55;6.53;;;2.17;;
25609;SDS011;13479;49.044;8.716;2022-10-16T15:51:24;6.93;;;2.00;;
25609;SDS011;13479;49.044;8.716;2022-10-16T15:53:52;9.18;;;1.98;;
25609;SDS011;13479;49.044;8.716;2022-10-16T15:56:18;9.80;;;1.88;;
25609;SDS011;13479;49.044;8.716;2022-10-16T15:58:44;3.70;;;1.10;;
25609;SDS011;13479;49.044;8.716;2022-10-16T16:01:09;2.33;;;1.33;;
25609;SDS011;13479;49.044;8.716;2022-10-16T16:03:36;5.35;;;1.60;;
25609;SDS011;13479;49.044;8.716;2022-10-16T16:06:05;5.90;;;1.55;;
25609;SDS011;13479;49.044;8.716;2022-10-16T16:08:35;3.95;;;1.70;;
25609;SDS011;13479;49.044;8.716;2022-10-16T16:11:01;4.85;;;1.80;;
25609;SDS011;13479;49.044;8.716;2022-10-16T16:13:27;12.00;;;1.48;;
25609;SDS011;13479;49.044;8.716;2022-10-16T16:15:53;6.60;;;1.42;;
25609;SDS011;13479;49.044;8.716;2022-10-16T16:18:18;9.68;;;1.48;;
25609;SDS011;13479;49.044;8.716;2022-10-16T16:20:43;4.95;;;1.98;;
25609;SDS011;13479;49.044;8.716;2022-10-16T16:23:09;7.03;;;2.13;;
25609;SDS011;13479;49.044;8.716;2022-10-16T16:25:34;8.07;;;2.70;;
25609;SDS011;13479;49.044;8.716;2022-10-16T16:27:59;6.00;;;3.85;;
25609;SDS011;13479;49.044;8.716;2022-10-16T16:30:25;9.70;;;3.20;;
25609;SDS011;13479;49.044;8.716;2022-10-16T16:32:50;18.70;;;9.30;;
25609;SDS011;13479;49.044;8.716;2022-10-16T16:35:15;10.80;;;4.68;;